Time;durP1;ratioP1;P1;durP2;ratioP2;P2;SDS_P1;SDS_P2;PMS_P1;PMS_P2;Temp;Humidity;BMP_temperature;BMP_pressure;BME280_temperature;BME280_humidity;BME280_pressure;Samples;Min_cycle;Max_cycle;Signal;HPM_P1;HPM_P2
2021/04/14 14:35:49;;;;;;;18.77;12.43;;;7.70;80.10;;;;;;8336962;27;20609;-77
2021/04/14 14:39:58;;;;;;;19.90;12.97;;;9.00;78.30;;;;;;8332494;28;20451;-74
2021/04/14 14:44:05;;;;;;;16.37;12.30;;;11.00;71.50;;;;;;8321217;28;20447;-76
2021/04/14 14:48:22;;;;;;;14.33;11.17;;;12.10;62.80;;;;;;8316919;28;20461;-74
2021/04/14 14:52:24;;;;;;;15.50;11.40;;;12.80;60.30;;;;;;8325552;28;20469;-74
2021/04/14 14:56:53;;;;;;;14.37;12.13;;;12.90;59.60;;;;;;8311672;28;20844;-74
2021/04/14 15:01:05;;;;;;;21.60;17.07;;;12.70;58.80;;;;;;8322370;28;20809;-73
2021/04/14 15:05:16;;;;;;;24.67;19.37;;;12.20;64.30;;;;;;8316080;28;20443;-74
2021/04/14 15:09:18;;;;;;;27.07;20.40;;;11.10;73.10;;;;;;8317958;28;20450;-74
2021/04/14 15:13:20;;;;;;;26.50;20.50;;;10.10;77.90;;;;;;8312876;28;20687;-74
2021/04/14 15:17:24;;;;;;;30.80;22.43;;;9.40;82.50;;;;;;8296906;28;21011;-73
2021/04/14 15:21:25;;;;;;;24.83;18.90;;;9.00;85.70;;;;;;8324076;28;20958;-73
2021/04/14 15:25:29;;;;;;;23.63;17.60;;;8.80;87.40;;;;;;8313188;28;21020;-74
2021/04/14 15:29:34;;;;;;;20.90;17.40;;;8.50;87.80;;;;;;8286222;28;20444;-74
2021/04/14 15:33:59;;;;;;;20.37;17.53;;;8.20;90.00;;;;;;8312386;28;20552;-72
2021/04/14 15:38:07;;;;;;;23.80;18.17;;;8.00;90.20;;;;;;8306600;28;20554;-73
2021/04/14 15:42:10;;;;;;;28.30;21.30;;;7.80;90.70;;;;;;8314598;28;20462;-73
2021/04/14 15:46:11;;;;;;;29.43;22.37;;;7.80;91.10;;;;;;8286218;28;20451;-75
2021/04/14 15:50:14;;;;;;;26.73;20.70;;;7.90;91.60;;;;;;8273223;28;20535;-72
2021/04/14 15:54:15;;;;;;;28.33;21.37;;;8.00;91.40;;;;;;8290659;28;20473;-73
2021/04/14 15:58:17;;;;;;;27.63;21.33;;;8.10;91.70;;;;;;8283637;28;20444;-71
2021/04/14 16:02:18;;;;;;;25.20;20.63;;;8.50;91.30;;;;;;8288199;28;20202;-74
2021/04/14 16:06:29;;;;;;;28.90;22.53;;;8.70;90.60;;;;;;8288644;28;20452;-73
2021/04/14 16:10:32;;;;;;;28.33;20.43;;;8.80;90.20;;;;;;8278004;28;20480;-71
2021/04/14 16:14:38;;;;;;;26.07;19.50;;;9.00;88.80;;;;;;8285166;28;20461;-74
2021/04/14 16:18:40;;;;;;;22.50;18.50;;;9.20;87.70;;;;;;8293980;28;20490;-74
2021/04/14 16:22:51;;;;;;;23.43;17.20;;;9.40;85.50;;;;;;8283917;28;20598;-76
2021/04/14 16:26:52;;;;;;;21.50;17.27;;;9.60;85.50;;;;;;8286096;28;20470;-74
2021/04/14 16:30:56;;;;;;;18.03;16.13;;;9.80;82.70;;;;;;8291040;28;20453;-75
2021/04/14 16:35:00;;;;;;;21.87;17.00;;;9.70;82.10;;;;;;8281583;28;20481;-74
2021/04/14 16:39:04;;;;;;;21.47;17.07;;;9.60;82.60;;;;;;8286356;28;20457;-75
2021/04/14 16:43:10;;;;;;;24.90;19.37;;;9.40;84.10;;;;;;8293383;28;20454;-74
2021/04/14 16:47:12;;;;;;;24.37;16.67;;;9.40;84.30;;;;;;8287460;28;20534;-75
2021/04/14 16:51:13;;;;;;;26.40;17.60;;;9.50;82.40;;;;;;8290018;28;20453;-74
2021/04/14 16:55:15;;;;;;;20.10;15.37;;;9.50;81.50;;;;;;8286704;28;20482;-76
2021/04/14 16:59:17;;;;;;;24.47;16.93;;;9.50;81.70;;;;;;8295333;28;20187;-73
2021/04/14 17:03:19;;;;;;;19.50;17.33;;;9.30;81.50;;;;;;8261953;28;21440;-75
2021/04/14 17:07:20;;;;;;;29.00;18.43;;;9.10;81.90;;;;;;8278975;28;20462;-76
2021/04/14 17:11:23;;;;;;;29.77;19.23;;;8.90;82.90;;;;;;8279419;28;20454;-75
2021/04/14 17:15:25;;;;;;;33.90;21.33;;;8.80;83.60;;;;;;8282073;28;20457;-74
2021/04/14 17:19:28;;;;;;;29.13;19.80;;;8.70;84.30;;;;;;8284571;28;20502;-75
2021/04/14 17:23:34;;;;;;;28.13;19.60;;;8.70;84.30;;;;;;8288886;28;20491;-74
2021/04/14 17:27:37;;;;;;;28.23;19.30;;;8.70;85.00;;;;;;8272798;28;20465;-74
2021/04/14 17:31:39;;;;;;;23.73;18.37;;;8.70;84.90;;;;;;8286768;28;20459;-74
2021/04/14 17:35:41;;;;;;;29.30;20.27;;;8.70;84.70;;;;;;8289813;28;20550;-75
2021/04/14 17:39:48;;;;;;;31.47;19.70;;;8.80;84.20;;;;;;8285112;28;20503;-74
2021/04/14 17:43:49;;;;;;;26.63;19.03;;;8.80;84.10;;;;;;8291231;28;20454;-73
2021/04/14 17:47:51;;;;;;;29.33;20.00;;;8.70;84.00;;;;;;8285729;28;20446;-73
2021/04/14 17:51:58;;;;;;;29.70;20.37;;;8.60;84.40;;;;;;8285588;28;20456;-74
2021/04/14 17:56:03;;;;;;;31.57;21.23;;;8.40;84.40;;;;;;8279003;28;20449;-74
2021/04/14 18:00:06;;;;;;;27.40;22.23;;;8.30;85.80;;;;;;8288476;28;20469;-75
2021/04/14 18:04:07;;;;;;;26.90;21.10;;;8.10;87.20;;;;;;8280070;28;20537;-73
2021/04/14 18:08:15;;;;;;;31.53;20.83;;;8.00;88.00;;;;;;8272531;28;20999;-74
2021/04/14 18:12:17;;;;;;;31.77;21.97;;;7.80;88.60;;;;;;8269276;28;20465;-73
2021/04/14 18:16:19;;;;;;;31.90;23.13;;;7.70;88.30;;;;;;8275704;28;20447;-74
2021/04/14 18:20:23;;;;;;;29.53;23.20;;;7.60;88.30;;;;;;8284637;28;20902;-74
2021/04/14 18:24:27;;;;;;;34.53;23.70;;;7.50;89.30;;;;;;8280926;28;20444;-74
2021/04/14 18:28:29;;;;;;;36.43;23.23;;;7.40;89.60;;;;;;8282728;28;20439;-73
2021/04/14 18:32:30;;;;;;;36.50;22.77;;;7.20;90.00;;;;;;8258009;28;20503;-73
2021/04/14 18:36:34;;;;;;;33.87;24.47;;;7.10;89.50;;;;;;8282624;28;20484;-74
2021/04/14 18:40:37;;;;;;;36.23;23.40;;;7.00;89.70;;;;;;8281521;28;20291;-74
2021/04/14 18:44:38;;;;;;;37.53;25.65;;;6.80;90.20;;;;;;8280803;28;20530;-72
2021/04/14 18:48:40;;;;;;;45.23;28.40;;;6.70;90.60;;;;;;8284239;28;20196;-74
2021/04/14 18:52:43;;;;;;;45.77;29.03;;;6.60;90.80;;;;;;8280554;28;20775;-74
2021/04/14 18:56:45;;;;;;;43.50;32.03;;;6.40;91.20;;;;;;8286688;28;20447;-74
2021/04/14 19:00:46;;;;;;;41.50;30.30;;;6.30;91.60;;;;;;8287079;28;20455;-73
2021/04/14 19:04:47;;;;;;;40.27;27.33;;;6.20;91.70;;;;;;8277890;28;20481;-75
2021/04/14 19:08:49;;;;;;;49.43;27.20;;;6.00;91.70;;;;;;8283620;28;20995;-74
2021/04/14 19:12:50;;;;;;;43.70;30.57;;;5.90;92.00;;;;;;8273605;28;20216;-74
2021/04/14 19:16:52;;;;;;;40.33;27.67;;;5.70;92.40;;;;;;8285232;28;20444;-74
2021/04/14 19:21:01;;;;;;;49.37;31.23;;;5.60;92.30;;;;;;8295363;28;20198;-76
2021/04/14 19:25:03;;;;;;;56.73;31.00;;;5.40;92.70;;;;;;8301401;28;20450;-73
2021/04/14 19:29:08;;;;;;;55.30;34.43;;;5.20;92.80;;;;;;8287831;28;21108;-74
2021/04/14 19:33:12;;;;;;;55.90;33.00;;;5.10;93.00;;;;;;8291345;28;20846;-73
2021/04/14 19:37:16;;;;;;;52.60;33.07;;;5.00;93.40;;;;;;8295919;28;20560;-74
2021/04/14 19:41:19;;;;;;;56.10;33.27;;;4.90;93.80;;;;;;8286408;28;21299;-73
2021/04/14 19:45:23;;;;;;;64.93;33.60;;;4.90;93.80;;;;;;8285318;28;20481;-74
2021/04/14 19:49:32;;;;;;;62.07;37.50;;;4.80;93.90;;;;;;8294347;28;20446;-74
2021/04/14 19:53:33;;;;;;;53.73;32.20;;;4.80;94.50;;;;;;8291057;28;20468;-75
2021/04/14 19:57:34;;;;;;;50.43;30.33;;;4.80;94.50;;;;;;8277130;28;20457;-74
2021/04/14 20:01:39;;;;;;;54.67;33.20;;;4.70;94.10;;;;;;8288859;28;20822;-75
2021/04/14 20:05:42;;;;;;;53.57;32.03;;;4.60;93.80;;;;;;8287924;28;20441;-74
2021/04/14 20:09:51;;;;;;;55.87;35.93;;;4.50;93.90;;;;;;8297828;28;20475;-75
2021/04/14 20:13:52;;;;;;;60.87;34.73;;;4.40;93.90;;;;;;8285896;28;20531;-76
2021/04/14 20:18:00;;;;;;;54.10;35.63;;;4.40;94.10;;;;;;8293932;28;20452;-72
2021/04/14 20:22:01;;;;;;;56.27;32.00;;;4.30;94.10;;;;;;8292835;28;20946;-74
2021/04/14 20:26:06;;;;;;;61.23;35.80;;;4.20;94.20;;;;;;8289490;28;21272;-74
2021/04/14 20:30:08;;;;;;;57.53;34.23;;;4.10;94.20;;;;;;8272595;28;20191;-74
2021/04/14 20:34:10;;;;;;;57.67;35.20;;;4.00;94.40;;;;;;8270427;28;20530;-72
2021/04/14 20:38:11;;;;;;;61.03;36.63;;;3.90;94.40;;;;;;8287646;28;21047;-75
2021/04/14 20:42:16;;;;;;;64.30;38.40;;;3.80;94.50;;;;;;8287975;28;20441;-74
2021/04/14 20:46:17;;;;;;;64.33;37.83;;;3.80;94.70;;;;;;8287651;28;20447;-74
2021/04/14 20:50:24;;;;;;;75.13;41.97;;;3.70;94.60;;;;;;8288160;28;20540;-74
2021/04/14 20:54:31;;;;;;;64.37;38.20;;;3.60;94.60;;;;;;8280060;28;20538;-76
2021/04/14 20:58:38;;;;;;;79.97;44.23;;;3.60;95.30;;;;;;8281781;28;20509;-75
2021/04/14 21:02:39;;;;;;;72.10;40.90;;;3.60;95.70;;;;;;8279373;28;20788;-73
2021/04/14 21:06:40;;;;;;;75.10;38.00;;;3.60;95.90;;;;;;8285633;28;21132;-75
2021/04/14 21:10:41;;;;;;;70.63;40.30;;;3.70;95.90;;;;;;8287068;28;20491;-73
2021/04/14 21:14:42;;;;;;;67.17;37.97;;;3.70;95.80;;;;;;8268837;28;20477;-74
2021/04/14 21:18:43;;;;;;;64.40;37.80;;;3.70;95.50;;;;;;8284998;28;20460;-73
2021/04/14 21:22:46;;;;;;;70.27;41.17;;;3.70;95.30;;;;;;8291411;28;20594;-73
2021/04/14 21:26:50;;;;;;;77.83;40.00;;;3.70;94.90;;;;;;8294929;28;20305;-73
2021/04/14 21:30:54;;;;;;;82.10;42.40;;;3.60;95.10;;;;;;8289134;28;20492;-73
2021/04/14 21:34:55;;;;;;;76.90;41.30;;;3.60;95.60;;;;;;8283767;28;20562;-73
2021/04/14 21:38:56;;;;;;;81.03;45.17;;;3.60;95.50;;;;;;8279740;28;20443;-73
2021/04/14 21:42:57;;;;;;;79.30;41.07;;;3.60;95.40;;;;;;8289753;28;20648;-74
2021/04/14 21:46:57;;;;;;;74.33;39.67;;;3.50;95.50;;;;;;8289392;28;20284;-73
2021/04/14 21:50:58;;;;;;;77.23;44.07;;;3.50;95.40;;;;;;8288452;28;20452;-72
2021/04/14 21:54:59;;;;;;;81.50;43.90;;;3.50;95.40;;;;;;8289111;28;20216;-73
2021/04/14 21:58:59;;;;;;;72.63;40.17;;;3.40;95.10;;;;;;8285550;28;20228;-74
2021/04/14 22:03:01;;;;;;;84.53;45.70;;;3.40;95.30;;;;;;8280845;28;20198;-72
2021/04/14 22:07:03;;;;;;;73.10;39.97;;;3.30;95.20;;;;;;8290999;28;20189;-74
2021/04/14 22:11:04;;;;;;;80.47;43.27;;;3.30;95.10;;;;;;8276891;28;20506;-74
2021/04/14 22:15:06;;;;;;;71.60;40.83;;;3.20;95.00;;;;;;8269488;28;20473;-74
2021/04/14 22:19:14;;;;;;;105.23;45.87;;;3.10;95.10;;;;;;8284435;28;20443;-74
2021/04/14 22:23:14;;;;;;;79.37;41.87;;;3.10;95.30;;;;;;8302306;28;20955;-74
2021/04/14 22:27:15;;;;;;;85.33;45.07;;;3.00;95.30;;;;;;8290663;28;20955;-74
2021/04/14 22:31:21;;;;;;;103.73;52.87;;;2.90;95.10;;;;;;8290751;28;20223;-73
2021/04/14 22:35:24;;;;;;;86.60;45.60;;;2.90;95.30;;;;;;8287175;28;20363;-73
2021/04/14 22:39:25;;;;;;;96.00;48.77;;;2.80;95.40;;;;;;8285878;28;20439;-74
2021/04/14 22:43:25;;;;;;;72.07;38.00;;;2.70;95.30;;;;;;8300171;28;20457;-74
2021/04/14 22:47:26;;;;;;;82.47;42.10;;;2.70;95.20;;;;;;8281820;28;20197;-74
2021/04/14 22:51:27;;;;;;;80.83;43.47;;;2.60;95.10;;;;;;8287037;28;20239;-73
2021/04/14 22:55:28;;;;;;;82.37;42.30;;;2.50;95.00;;;;;;8298065;28;20704;-74
2021/04/14 22:59:32;;;;;;;75.40;39.77;;;2.50;95.40;;;;;;8297056;28;20215;-74
2021/04/14 23:03:36;;;;;;;71.60;42.90;;;2.40;95.50;;;;;;8295698;28;20447;-74
2021/04/14 23:07:38;;;;;;;107.47;51.17;;;2.30;95.50;;;;;;8294851;28;20525;-73
2021/04/14 23:11:39;;;;;;;77.20;42.37;;;2.20;95.60;;;;;;8293834;28;20483;-74
2021/04/14 23:15:40;;;;;;;82.27;46.40;;;2.20;95.80;;;;;;8280959;28;20491;-74
2021/04/14 23:19:45;;;;;;;80.33;41.80;;;2.20;95.60;;;;;;8297591;28;20455;-75
2021/04/14 23:23:46;;;;;;;79.37;42.70;;;2.10;95.40;;;;;;8295243;28;20208;-74
2021/04/14 23:27:46;;;;;;;97.23;48.90;;;2.00;95.50;;;;;;8284638;28;21267;-74
2021/04/14 23:31:47;;;;;;;88.90;49.30;;;1.90;95.60;;;;;;8296469;28;20565;-75
2021/04/14 23:35:49;;;;;;;90.37;47.47;;;1.90;95.70;;;;;;8278501;28;20228;-75
2021/04/14 23:39:52;;;;;;;102.80;47.57;;;1.90;95.70;;;;;;8286756;28;20225;-74
2021/04/14 23:43:56;;;;;;;87.40;42.67;;;1.90;95.70;;;;;;8305511;28;20498;-75
2021/04/14 23:48:05;;;;;;;82.63;42.90;;;1.80;95.80;;;;;;8303656;28;20447;-74
2021/04/14 23:52:06;;;;;;;97.33;47.13;;;1.80;96.00;;;;;;8300650;28;20447;-74
2021/04/14 23:56:08;;;;;;;120.43;54.00;;;1.80;96.10;;;;;;8290053;28;20447;-74
